Terminal Aerodrome Forecast
Issued by NWS Cleveland, OH

Home | Current Version | Previous Version | Graphics & Text | Print | Product List | Glossary On
Versions: 1 2 3 4 5 6 7 8 9 10 11 12 13 14 15 16
977
FTUS41 KCLE 181139
TAFYNG
TAF
KYNG 181139Z 1812/1912 27010KT 5SM BR OVC007
      TEMPO 1812/1816 3SM -RASN OVC005
     FM181600 27010KT P6SM OVC007
     FM182000 27008KT P6SM OVC009
     FM190100 24005KT P6SM OVC007=

USA.gov is the U.S. government's official web portal to all federal, state and local government web resources and services.